Time;durP1;ratioP1;P1;durP2;ratioP2;P2;SDS_P1;SDS_P2;PMS_P1;PMS_P2;Temp;Humidity;BMP_temperature;BMP_pressure;BME280_temperature;BME280_humidity;BME280_pressure;Samples;Min_cycle;Max_cycle;Signal;HPM_P1;HPM_P2
2021/08/06 00:00:04;;;;;;;3.43;2.90;;;16.20;99.90;;;;;;5020439;28;20203;-43
2021/08/06 00:02:33;;;;;;;4.33;3.30;;;16.20;99.90;;;;;;5045467;28;20195;-45
2021/08/06 00:05:01;;;;;;;3.47;3.17;;;16.10;99.90;;;;;;5041002;28;20202;-49
2021/08/06 00:07:28;;;;;;;3.10;2.90;;;16.00;99.90;;;;;;5044978;28;20199;-47
2021/08/06 00:09:55;;;;;;;7.50;2.93;;;16.00;99.90;;;;;;5044731;28;20200;-45
2021/08/06 00:12:22;;;;;;;3.80;3.50;;;16.00;99.90;;;;;;5044882;28;20268;-42
2021/08/06 00:14:49;;;;;;;3.77;3.30;;;16.00;99.90;;;;;;5027708;28;20207;-44
2021/08/06 00:17:17;;;;;;;4.13;3.87;;;15.90;99.90;;;;;;5043425;28;20211;-47
2021/08/06 00:19:44;;;;;;;4.33;3.60;;;15.90;99.90;;;;;;5046987;28;20647;-45
2021/08/06 00:22:10;;;;;;;3.90;3.57;;;15.90;99.90;;;;;;5042937;28;20196;-40
2021/08/06 00:24:37;;;;;;;4.27;3.90;;;15.90;99.90;;;;;;5048967;28;20202;-49
2021/08/06 00:27:04;;;;;;;3.90;3.60;;;15.80;99.90;;;;;;5048868;28;20257;-41
2021/08/06 00:29:31;;;;;;;3.30;3.10;;;15.80;99.90;;;;;;5030847;28;20215;-43
2021/08/06 00:31:58;;;;;;;4.60;4.20;;;15.90;99.90;;;;;;5043242;28;20203;-46
2021/08/06 00:34:26;;;;;;;3.90;3.60;;;15.80;99.90;;;;;;5043985;28;20276;-46
2021/08/06 00:36:54;;;;;;;5.23;4.73;;;15.80;99.90;;;;;;5044599;28;20715;-43
2021/08/06 00:39:23;;;;;;;4.20;3.80;;;15.80;99.90;;;;;;5043319;28;20187;-41
2021/08/06 00:41:51;;;;;;;4.30;4.00;;;15.80;99.90;;;;;;5044730;28;20559;-43
2021/08/06 00:44:20;;;;;;;4.30;3.97;;;15.70;99.90;;;;;;5045412;28;20179;-44
2021/08/06 00:46:49;;;;;;;5.80;4.03;;;15.60;99.90;;;;;;5032945;28;20640;-49
2021/08/06 00:49:17;;;;;;;4.63;4.10;;;15.60;99.90;;;;;;5041633;28;20214;-41
2021/08/06 00:51:51;;;;;;;4.60;4.20;;;15.50;99.90;;;;;;5044684;28;20206;-42
2021/08/06 00:54:20;;;;;;;5.80;4.40;;;15.50;99.90;;;;;;5042242;28;20207;-44
2021/08/06 00:57:01;;;;;;;5.30;4.27;;;15.50;99.90;;;;;;5042589;28;20215;-43
2021/08/06 00:59:29;;;;;;;5.53;4.60;;;15.50;99.90;;;;;;5044066;28;20230;-44
2021/08/06 01:02:04;;;;;;;5.00;4.60;;;15.50;99.90;;;;;;5027107;28;20227;-50
2021/08/06 01:04:40;;;;;;;4.93;4.57;;;15.50;99.90;;;;;;5045395;28;20218;-44
2021/08/06 01:07:17;;;;;;;5.27;4.63;;;15.40;99.90;;;;;;5040976;28;20591;-48
2021/08/06 01:09:52;;;;;;;5.37;4.97;;;15.40;99.90;;;;;;5044817;28;20536;-42
2021/08/06 01:12:30;;;;;;;6.03;5.03;;;15.40;99.90;;;;;;5043476;28;20272;-45
2021/08/06 01:15:01;;;;;;;6.30;4.87;;;15.40;99.90;;;;;;5042780;28;20241;-45
2021/08/06 01:17:35;;;;;;;7.20;5.57;;;15.30;99.90;;;;;;5025699;28;20224;-44
2021/08/06 01:20:08;;;;;;;5.40;5.00;;;15.30;99.90;;;;;;5042710;28;20204;-47
2021/08/06 01:22:43;;;;;;;5.83;5.33;;;15.30;99.90;;;;;;5045110;28;20248;-41
2021/08/06 01:25:23;;;;;;;5.20;4.80;;;15.30;99.90;;;;;;5043286;28;20828;-43
2021/08/06 01:27:55;;;;;;;5.87;5.33;;;15.30;99.90;;;;;;5044763;28;20231;-42
2021/08/06 01:30:26;;;;;;;5.17;4.83;;;15.30;99.90;;;;;;5044064;28;20188;-45
2021/08/06 01:32:56;;;;;;;5.67;5.20;;;15.30;99.90;;;;;;5037922;28;20224;-49
2021/08/06 01:35:23;;;;;;;5.67;5.27;;;15.30;99.90;;;;;;5031594;28;20199;-42
2021/08/06 01:37:50;;;;;;;5.50;5.00;;;15.30;99.90;;;;;;5043888;28;20208;-45
2021/08/06 01:40:19;;;;;;;6.50;5.07;;;15.30;99.90;;;;;;5041119;28;20797;-45
2021/08/06 01:43:10;;;;;;;5.40;5.00;;;15.30;99.90;;;;;;5042643;28;20188;-44
2021/08/06 01:45:41;;;;;;;8.30;6.00;;;15.30;99.90;;;;;;5064276;28;20782;-44
2021/08/06 01:48:12;;;;;;;5.73;5.17;;;15.30;99.90;;;;;;5044070;28;20246;-41
2021/08/06 01:50:43;;;;;;;6.87;5.10;;;15.30;99.90;;;;;;5046558;28;20242;-46
2021/08/06 01:53:16;;;;;;;5.87;4.90;;;15.30;99.90;;;;;;5042060;28;20260;-43
2021/08/06 01:55:55;;;;;;;6.03;5.33;;;15.30;99.90;;;;;;5043360;28;20625;-45
2021/08/06 01:58:27;;;;;;;7.10;5.53;;;15.20;99.90;;;;;;5042280;28;20302;-43
2021/08/06 02:01:00;;;;;;;5.80;5.30;;;15.20;99.90;;;;;;5042603;28;20202;-43
2021/08/06 02:03:27;;;;;;;7.40;6.17;;;15.30;99.90;;;;;;5042556;28;20398;-46
2021/08/06 02:06:07;;;;;;;6.67;5.57;;;15.30;99.90;;;;;;5023969;28;20298;-44
2021/08/06 02:08:40;;;;;;;5.63;5.17;;;15.30;99.90;;;;;;5044452;28;20219;-49
2021/08/06 02:11:07;;;;;;;5.77;5.17;;;15.30;99.90;;;;;;5043084;28;20616;-47
2021/08/06 02:13:40;;;;;;;5.50;5.00;;;15.30;99.90;;;;;;5043602;28;20310;-44
2021/08/06 02:16:09;;;;;;;6.23;5.63;;;15.30;99.90;;;;;;5039885;28;20196;-43
2021/08/06 02:18:37;;;;;;;5.97;5.37;;;15.30;99.90;;;;;;5045080;28;20211;-41
2021/08/06 02:21:17;;;;;;;6.80;5.70;;;15.30;99.90;;;;;;5023367;28;20211;-41
2021/08/06 02:23:50;;;;;;;5.73;5.23;;;15.30;99.90;;;;;;5044796;28;20654;-46
2021/08/06 02:26:23;;;;;;;5.87;5.40;;;15.30;99.90;;;;;;5042102;28;20187;-47
2021/08/06 02:28:56;;;;;;;7.10;5.87;;;15.30;99.90;;;;;;5043965;28;20215;-43
2021/08/06 02:31:27;;;;;;;5.83;5.47;;;15.30;99.90;;;;;;5042182;28;20245;-43
2021/08/06 02:33:55;;;;;;;5.43;4.93;;;15.30;99.90;;;;;;5041796;28;20255;-43
2021/08/06 02:36:22;;;;;;;6.93;6.00;;;15.30;99.90;;;;;;5026007;28;20233;-43
2021/08/06 02:38:50;;;;;;;6.63;6.00;;;15.30;99.90;;;;;;5042871;28;20238;-41
2021/08/06 02:41:16;;;;;;;5.60;5.20;;;15.30;99.90;;;;;;5043214;28;20258;-41
2021/08/06 02:43:43;;;;;;;6.00;5.50;;;15.30;99.90;;;;;;5043204;28;20719;-41
2021/08/06 02:46:11;;;;;;;6.30;5.77;;;15.30;99.90;;;;;;5038979;28;20199;-43
2021/08/06 02:48:38;;;;;;;6.17;5.60;;;15.30;99.90;;;;;;5042895;28;20581;-44
2021/08/06 02:51:04;;;;;;;7.13;6.27;;;15.30;99.90;;;;;;5026936;28;20210;-43
2021/08/06 02:53:31;;;;;;;7.00;6.37;;;15.40;99.90;;;;;;5045205;28;20215;-47
2021/08/06 02:55:57;;;;;;;6.87;6.10;;;15.40;99.90;;;;;;5043450;28;20203;-43
2021/08/06 02:58:29;;;;;;;6.90;6.30;;;15.40;99.90;;;;;;5042263;28;20223;-44
2021/08/06 03:00:56;;;;;;;6.30;5.80;;;15.40;99.90;;;;;;5044311;28;20661;-43
2021/08/06 03:03:24;;;;;;;7.43;6.47;;;15.40;99.90;;;;;;5043598;28;20211;-46
2021/08/06 03:05:50;;;;;;;6.37;5.80;;;15.40;99.90;;;;;;5045127;28;20221;-41
2021/08/06 03:08:17;;;;;;;7.07;5.63;;;15.40;99.90;;;;;;5030726;28;20848;-45
2021/08/06 03:10:44;;;;;;;7.77;6.97;;;15.40;99.90;;;;;;5045252;28;20212;-45
2021/08/06 03:13:10;;;;;;;7.10;6.50;;;15.40;99.90;;;;;;5043336;28;20301;-46
2021/08/06 03:15:37;;;;;;;7.20;6.50;;;15.40;99.90;;;;;;5045778;28;20188;-45
2021/08/06 03:18:04;;;;;;;7.30;6.70;;;15.50;99.90;;;;;;5043524;28;20227;-41
2021/08/06 03:20:33;;;;;;;7.07;6.50;;;15.50;99.90;;;;;;5041033;28;20271;-47
2021/08/06 03:23:05;;;;;;;8.10;6.57;;;15.50;99.90;;;;;;5034952;28;20710;-42
2021/08/06 03:25:31;;;;;;;8.03;7.07;;;15.50;99.90;;;;;;5061065;28;20199;-45
2021/08/06 03:27:59;;;;;;;6.80;6.20;;;15.50;99.90;;;;;;5044912;28;20579;-41
2021/08/06 03:30:28;;;;;;;7.07;6.50;;;15.50;99.90;;;;;;5045929;28;20195;-43
2021/08/06 03:32:55;;;;;;;8.83;6.57;;;15.40;99.90;;;;;;5044033;28;20215;-43
2021/08/06 03:35:23;;;;;;;6.60;6.03;;;15.40;99.90;;;;;;5060375;28;20190;-44
2021/08/06 03:37:52;;;;;;;8.10;6.50;;;15.40;99.90;;;;;;5030085;28;20223;-44
2021/08/06 03:40:19;;;;;;;6.67;6.13;;;15.40;99.90;;;;;;5043507;28;20747;-45
2021/08/06 03:42:46;;;;;;;7.20;6.50;;;15.40;99.90;;;;;;5042186;28;20198;-43
2021/08/06 03:45:14;;;;;;;7.50;6.80;;;15.40;99.90;;;;;;5038006;28;20183;-44
2021/08/06 03:47:41;;;;;;;7.40;6.53;;;15.30;99.90;;;;;;5042136;28;20305;-40
2021/08/06 03:50:08;;;;;;;8.47;6.47;;;15.30;99.90;;;;;;5037930;28;20357;-43
2021/08/06 03:52:36;;;;;;;6.83;6.27;;;15.30;99.90;;;;;;5042109;28;20195;-43
2021/08/06 03:55:05;;;;;;;7.10;6.50;;;15.30;99.90;;;;;;5023175;28;20677;-46
2021/08/06 03:57:33;;;;;;;7.10;6.40;;;15.30;99.90;;;;;;5041726;28;20310;-42
2021/08/06 03:59:59;;;;;;;6.90;6.40;;;15.30;99.90;;;;;;5039427;28;20192;-43
2021/08/06 04:02:26;;;;;;;7.13;6.50;;;15.30;99.90;;;;;;5044086;28;20188;-46
2021/08/06 04:04:53;;;;;;;6.03;5.53;;;15.30;99.90;;;;;;5044591;28;20195;-42
2021/08/06 04:07:20;;;;;;;6.97;6.10;;;15.30;99.90;;;;;;5040829;28;20951;-44
2021/08/06 04:09:46;;;;;;;6.60;6.00;;;15.30;99.90;;;;;;5021993;28;20211;-45
2021/08/06 04:12:14;;;;;;;6.63;6.10;;;15.30;99.90;;;;;;5038682;28;20184;-43
2021/08/06 04:14:41;;;;;;;7.00;6.30;;;15.30;99.90;;;;;;5041772;28;20219;-44
2021/08/06 04:17:08;;;;;;;8.93;6.00;;;15.30;99.90;;;;;;5037502;28;20302;-44
2021/08/06 04:19:35;;;;;;;6.57;6.07;;;15.30;99.90;;;;;;5041600;28;20636;-43
2021/08/06 04:22:01;;;;;;;7.43;6.20;;;15.20;99.90;;;;;;5040092;28;20201;-45
2021/08/06 04:24:28;;;;;;;7.03;6.43;;;15.30;99.90;;;;;;5024926;28;20187;-44
2021/08/06 04:26:55;;;;;;;6.73;6.23;;;15.20;99.90;;;;;;5041253;28;20306;-46
2021/08/06 04:29:23;;;;;;;6.90;6.30;;;15.20;99.90;;;;;;5039187;28;20187;-45
2021/08/06 04:31:50;;;;;;;6.77;5.90;;;15.20;99.90;;;;;;5042682;28;20195;-43
2021/08/06 04:34:16;;;;;;;6.77;6.17;;;15.20;99.90;;;;;;5044687;28;20858;-43
2021/08/06 04:36:43;;;;;;;6.67;6.17;;;15.20;99.90;;;;;;5045914;28;20230;-46
2021/08/06 04:39:10;;;;;;;6.97;6.27;;;15.20;99.90;;;;;;5027413;28;20199;-49
2021/08/06 04:41:36;;;;;;;7.43;6.73;;;15.20;99.90;;;;;;5043256;28;20196;-50
2021/08/06 04:44:04;;;;;;;7.07;6.57;;;15.20;99.90;;;;;;5044452;28;20191;-41
2021/08/06 04:46:32;;;;;;;7.80;7.10;;;15.20;99.90;;;;;;5043784;28;20282;-45
2021/08/06 04:48:59;;;;;;;8.43;7.63;;;15.30;99.90;;;;;;5039059;28;20300;-43
2021/08/06 04:51:26;;;;;;;7.37;6.87;;;15.30;99.90;;;;;;5039743;28;20228;-46
2021/08/06 04:53:52;;;;;;;8.93;8.13;;;15.20;99.90;;;;;;5043525;28;20310;-48
2021/08/06 04:56:19;;;;;;;8.87;8.07;;;15.20;99.90;;;;;;5026505;28;20839;-44
2021/08/06 04:58:46;;;;;;;8.77;7.90;;;15.30;99.90;;;;;;5044652;28;20219;-45
2021/08/06 05:01:12;;;;;;;9.10;8.37;;;15.30;99.90;;;;;;5040876;28;20187;-42
2021/08/06 05:03:40;;;;;;;8.93;8.13;;;15.30;99.90;;;;;;5046654;28;20191;-44
2021/08/06 05:06:07;;;;;;;9.70;8.70;;;15.30;99.90;;;;;;5042000;28;20195;-41
2021/08/06 05:08:34;;;;;;;10.40;8.37;;;15.40;99.90;;;;;;5047495;28;20222;-40
2021/08/06 05:11:01;;;;;;;9.57;8.57;;;15.40;99.90;;;;;;5031986;28;20198;-44
2021/08/06 05:13:28;;;;;;;9.87;8.53;;;15.40;99.90;;;;;;5041339;28;20219;-43
2021/08/06 05:15:55;;;;;;;9.30;8.50;;;15.40;99.90;;;;;;5048222;28;20253;-41
2021/08/06 05:18:21;;;;;;;10.67;9.00;;;15.50;99.90;;;;;;5046580;28;20273;-44
2021/08/06 05:20:50;;;;;;;9.50;8.60;;;15.50;99.90;;;;;;5045899;28;20222;-45
2021/08/06 05:23:17;;;;;;;9.97;9.07;;;15.50;99.90;;;;;;5040996;28;20222;-43
2021/08/06 05:25:44;;;;;;;10.37;9.47;;;15.60;99.90;;;;;;5047972;28;20195;-42
2021/08/06 05:28:12;;;;;;;10.43;9.60;;;15.60;99.90;;;;;;5025786;28;20269;-45
2021/08/06 05:30:39;;;;;;;10.90;9.80;;;15.70;99.90;;;;;;5044200;28;20249;-43
2021/08/06 05:33:07;;;;;;;12.03;9.47;;;15.70;99.90;;;;;;5040872;28;20203;-46
2021/08/06 05:35:34;;;;;;;10.00;9.10;;;15.70;99.90;;;;;;5048444;28;20788;-48
2021/08/06 05:38:04;;;;;;;10.43;9.40;;;15.80;99.90;;;;;;5045750;28;20215;-41
2021/08/06 05:40:31;;;;;;;9.73;8.80;;;15.80;99.90;;;;;;5047997;28;20257;-49
2021/08/06 05:42:59;;;;;;;9.87;8.87;;;15.90;99.90;;;;;;5029703;28;20674;-44
2021/08/06 05:45:29;;;;;;;9.47;8.73;;;15.90;99.90;;;;;;5043240;28;20195;-43
2021/08/06 05:47:57;;;;;;;8.73;7.93;;;16.00;99.90;;;;;;5042435;28;20215;-49
2021/08/06 05:50:29;;;;;;;8.37;7.67;;;16.10;99.90;;;;;;5044464;28;21201;-48
2021/08/06 05:52:56;;;;;;;8.17;7.47;;;16.10;99.90;;;;;;5047139;28;20227;-42
2021/08/06 05:55:24;;;;;;;7.83;7.10;;;16.10;99.90;;;;;;5048162;28;20219;-45
2021/08/06 05:57:59;;;;;;;6.73;6.13;;;16.20;99.90;;;;;;5037445;28;20246;-41
2021/08/06 06:00:27;;;;;;;7.77;6.53;;;16.30;99.90;;;;;;5045022;28;20196;-40
2021/08/06 06:03:02;;;;;;;6.80;6.20;;;16.30;99.90;;;;;;5058067;28;20191;-48
2021/08/06 06:05:49;;;;;;;6.10;5.60;;;16.40;99.90;;;;;;5059827;28;20199;-46
2021/08/06 06:08:16;;;;;;;5.97;5.47;;;16.40;99.90;;;;;;5041730;28;20199;-43
2021/08/06 06:10:45;;;;;;;6.37;5.93;;;16.50;99.90;;;;;;5061199;28;20195;-45
2021/08/06 06:13:12;;;;;;;5.70;5.30;;;16.50;99.90;;;;;;5044848;28;20191;-42
2021/08/06 06:15:39;;;;;;;5.67;5.17;;;16.60;99.90;;;;;;5031965;28;20219;-44
2021/08/06 06:18:06;;;;;;;6.17;5.67;;;16.60;99.90;;;;;;5043586;28;20215;-43
2021/08/06 06:20:33;;;;;;;5.70;5.30;;;16.70;99.90;;;;;;5044448;28;20230;-44
2021/08/06 06:23:00;;;;;;;5.40;5.00;;;16.70;99.90;;;;;;5041063;28;20673;-42
2021/08/06 06:25:28;;;;;;;5.20;4.80;;;16.80;99.90;;;;;;5042604;28;20241;-41
2021/08/06 06:27:57;;;;;;;4.97;4.57;;;16.90;99.90;;;;;;5043539;28;20298;-43
2021/08/06 06:30:29;;;;;;;4.90;4.40;;;16.90;99.90;;;;;;5026298;28;20199;-41
2021/08/06 06:32:58;;;;;;;4.50;4.10;;;17.00;99.90;;;;;;5041175;28;20657;-43
2021/08/06 06:35:26;;;;;;;4.47;4.17;;;17.10;99.90;;;;;;5041732;28;20273;-42
2021/08/06 06:37:54;;;;;;;4.70;4.30;;;17.20;99.90;;;;;;5042036;28;20223;-42
2021/08/06 06:40:22;;;;;;;4.87;4.13;;;17.20;99.90;;;;;;5040484;28;20190;-46
2021/08/06 06:42:51;;;;;;;3.87;3.67;;;17.20;99.90;;;;;;5042845;28;20196;-43
2021/08/06 06:45:21;;;;;;;3.83;3.60;;;17.30;99.90;;;;;;5024737;28;20342;-48
2021/08/06 06:47:50;;;;;;;4.53;4.23;;;17.40;99.90;;;;;;5042634;28;20219;-46
2021/08/06 06:50:20;;;;;;;8.00;3.77;;;17.40;99.90;;;;;;5036442;28;20188;-45
2021/08/06 06:52:47;;;;;;;4.07;3.77;;;17.50;99.90;;;;;;5045224;28;20192;-46
2021/08/06 06:55:15;;;;;;;4.00;3.57;;;17.50;99.90;;;;;;5041773;28;20819;-47
2021/08/06 06:57:43;;;;;;;3.83;3.53;;;17.60;99.90;;;;;;5045962;28;20227;-47
2021/08/06 07:00:12;;;;;;;3.77;3.57;;;17.60;99.90;;;;;;5041467;28;20180;-42
2021/08/06 07:02:41;;;;;;;3.67;3.37;;;17.70;99.90;;;;;;5027453;28;20207;-43
2021/08/06 07:05:09;;;;;;;3.60;3.40;;;17.70;99.90;;;;;;5039959;28;20241;-41
2021/08/06 07:07:35;;;;;;;4.00;3.77;;;17.70;99.90;;;;;;5045935;28;20223;-41
2021/08/06 07:10:02;;;;;;;3.17;2.97;;;17.80;99.90;;;;;;5039645;28;20196;-47
2021/08/06 07:12:30;;;;;;;3.60;3.30;;;17.90;99.90;;;;;;5042291;28;20199;-42
2021/08/06 07:14:59;;;;;;;3.80;3.40;;;17.90;99.90;;;;;;5042001;28;20264;-43
2021/08/06 07:17:26;;;;;;;3.53;3.33;;;18.00;99.90;;;;;;5025511;28;20223;-44
2021/08/06 07:19:54;;;;;;;3.13;2.87;;;18.00;99.90;;;;;;5042114;28;20198;-47
2021/08/06 07:22:21;;;;;;;6.53;3.40;;;18.10;99.90;;;;;;5039704;28;20826;-45
2021/08/06 07:24:47;;;;;;;3.37;3.07;;;18.20;99.90;;;;;;5043713;28;20187;-41
2021/08/06 07:27:14;;;;;;;3.73;3.43;;;18.30;99.90;;;;;;5039711;28;20203;-44
2021/08/06 07:29:41;;;;;;;3.33;3.03;;;18.30;99.90;;;;;;5043997;28;20195;-42
2021/08/06 07:32:09;;;;;;;3.13;2.93;;;18.40;99.90;;;;;;5023056;28;20260;-42
2021/08/06 07:34:35;;;;;;;3.10;2.90;;;18.40;99.90;;;;;;5037570;28;20897;-42
2021/08/06 07:37:04;;;;;;;3.37;3.07;;;18.50;99.90;;;;;;5039746;28;20211;-43
2021/08/06 07:39:31;;;;;;;2.90;2.70;;;18.50;99.90;;;;;;5041170;28;20203;-45
2021/08/06 07:41:58;;;;;;;3.20;3.00;;;18.60;99.90;;;;;;5039463;28;20653;-43
2021/08/06 07:44:25;;;;;;;3.00;2.70;;;18.60;99.90;;;;;;5041643;28;20176;-41
2021/08/06 07:46:52;;;;;;;6.20;3.20;;;18.70;99.90;;;;;;5041372;28;20890;-48
2021/08/06 07:49:19;;;;;;;2.90;2.70;;;18.70;99.90;;;;;;5023323;28;20211;-41
2021/08/06 07:51:46;;;;;;;3.10;2.90;;;18.80;99.90;;;;;;5041874;28;20195;-41
2021/08/06 07:54:14;;;;;;;2.93;2.80;;;18.90;99.90;;;;;;5037899;28;20249;-41
2021/08/06 07:56:41;;;;;;;3.50;3.20;;;19.00;99.90;;;;;;5041928;28;20282;-40
2021/08/06 07:59:08;;;;;;;3.70;3.40;;;19.10;99.90;;;;;;5038030;28;20317;-46
2021/08/06 08:01:34;;;;;;;2.90;2.70;;;19.20;99.90;;;;;;5042013;28;20205;-42
2021/08/06 08:04:01;;;;;;;2.80;2.60;;;19.30;99.90;;;;;;5020078;28;20568;-42
2021/08/06 08:06:28;;;;;;;2.97;2.63;;;19.30;99.90;;;;;;5040810;28;20199;-42
2021/08/06 08:08:55;;;;;;;2.33;2.23;;;19.50;99.90;;;;;;5040217;28;20211;-47
2021/08/06 08:11:23;;;;;;;2.70;2.50;;;19.50;99.90;;;;;;5040919;28;20187;-41
2021/08/06 08:13:50;;;;;;;3.00;2.80;;;19.60;99.90;;;;;;5041364;28;20200;-43
2021/08/06 08:16:18;;;;;;;3.30;3.00;;;19.60;99.90;;;;;;5038691;28;20957;-44
2021/08/06 08:18:45;;;;;;;8.37;2.30;;;19.70;99.90;;;;;;5044697;28;20219;-45
2021/08/06 08:21:11;;;;;;;4.10;2.53;;;19.80;99.90;;;;;;5026392;28;20568;-47
2021/08/06 08:23:41;;;;;;;2.63;2.43;;;19.90;99.90;;;;;;5045765;28;20199;-44
2021/08/06 08:26:08;;;;;;;2.73;2.53;;;20.00;99.90;;;;;;5040777;28;20184;-42
2021/08/06 08:28:37;;;;;;;3.77;2.63;;;20.00;99.90;;;;;;5044378;28;20715;-42
2021/08/06 08:31:05;;;;;;;2.67;2.47;;;20.10;99.90;;;;;;5043489;28;20206;-40
2021/08/06 08:33:32;;;;;;;3.00;2.80;;;20.10;99.90;;;;;;5047403;28;20191;-41
2021/08/06 08:36:01;;;;;;;3.90;2.50;;;20.20;99.90;;;;;;5027333;28;20211;-44
2021/08/06 08:38:27;;;;;;;2.90;2.40;;;20.20;99.90;;;;;;5045552;28;21039;-43
2021/08/06 08:40:55;;;;;;;2.60;2.40;;;20.30;99.90;;;;;;5045670;28;20575;-40
2021/08/06 08:43:22;;;;;;;2.73;2.53;;;20.40;99.90;;;;;;5047795;28;20948;-41
2021/08/06 08:45:50;;;;;;;2.90;2.70;;;20.40;99.90;;;;;;5046567;28;20190;-44
2021/08/06 08:48:19;;;;;;;2.50;2.30;;;20.50;99.90;;;;;;5043570;28;20295;-42
2021/08/06 08:50:46;;;;;;;2.97;2.30;;;20.50;99.90;;;;;;5029308;28;20203;-45
2021/08/06 08:53:13;;;;;;;2.43;2.33;;;20.60;99.90;;;;;;5040919;28;20184;-42
2021/08/06 08:55:40;;;;;;;2.43;2.33;;;20.60;99.90;;;;;;5045153;28;20759;-45
2021/08/06 08:58:11;;;;;;;2.67;2.40;;;20.70;99.90;;;;;;5044811;28;20211;-45
2021/08/06 09:00:41;;;;;;;2.57;2.30;;;20.80;99.90;;;;;;5050624;28;20669;-46
2021/08/06 09:03:09;;;;;;;2.40;2.30;;;20.90;99.90;;;;;;5045495;28;20223;-41
2021/08/06 09:05:36;;;;;;;2.77;2.50;;;20.90;99.90;;;;;;5046518;28;20214;-44
2021/08/06 09:08:19;;;;;;;2.63;2.43;;;21.00;99.90;;;;;;5027093;28;20215;-43
2021/08/06 09:11:04;;;;;;;2.90;2.30;;;21.00;99.90;;;;;;5042842;28;20585;-44
2021/08/06 09:14:05;;;;;;;2.20;2.10;;;21.00;99.90;;;;;;5044603;28;20681;-46
2021/08/06 09:16:31;;;;;;;2.50;2.30;;;21.10;99.90;;;;;;5045832;28;20219;-42
2021/08/06 09:19:11;;;;;;;2.10;2.00;;;21.10;99.90;;;;;;5043811;28;20199;-42
2021/08/06 09:21:38;;;;;;;2.37;2.27;;;21.20;99.90;;;;;;5045720;28;20203;-42
2021/08/06 09:24:05;;;;;;;2.63;2.30;;;21.30;99.90;;;;;;5026780;28;20214;-45
2021/08/06 09:26:41;;;;;;;2.57;2.47;;;21.30;99.90;;;;;;5048033;28;20203;-46
2021/08/06 09:29:10;;;;;;;2.67;2.47;;;21.40;99.90;;;;;;5041671;28;20226;-43
2021/08/06 09:31:41;;;;;;;3.10;2.40;;;21.40;99.90;;;;;;5045942;28;20672;-41
2021/08/06 09:34:15;;;;;;;2.40;2.30;;;21.40;99.90;;;;;;5041931;28;20200;-46
2021/08/06 09:37:03;;;;;;;2.33;2.23;;;21.60;99.90;;;;;;5044489;28;20222;-43
2021/08/06 09:39:34;;;;;;;2.60;2.47;;;21.60;99.90;;;;;;5039846;28;20306;-44
2021/08/06 09:42:00;;;;;;;2.57;2.20;;;21.60;99.90;;;;;;5043274;28;20191;-42
2021/08/06 09:44:29;;;;;;;2.37;2.17;;;21.60;99.90;;;;;;5044343;28;20183;-42
2021/08/06 09:46:57;;;;;;;3.07;2.77;;;21.80;99.90;;;;;;5044062;28;20219;-45
2021/08/06 09:49:26;;;;;;;2.50;2.40;;;21.90;99.90;;;;;;5044398;28;20193;-44
2021/08/06 09:51:53;;;;;;;2.40;2.30;;;21.90;99.90;;;;;;5045153;28;20211;-50
2021/08/06 09:54:25;;;;;;;2.03;1.93;;;21.90;99.90;;;;;;5023533;28;20535;-44
2021/08/06 09:57:04;;;;;;;2.33;2.23;;;22.00;99.90;;;;;;5045794;28;20218;-41
2021/08/06 09:59:34;;;;;;;2.20;2.10;;;22.10;99.90;;;;;;5045640;28;20235;-44
2021/08/06 10:02:15;;;;;;;2.83;2.20;;;22.20;99.90;;;;;;5045454;28;20202;-42
2021/08/06 10:04:44;;;;;;;2.42;2.22;;;22.30;99.90;;;;;;5046591;28;20187;-43
2021/08/06 10:07:12;;;;;;;1.98;1.88;;;22.40;99.90;;;;;;5040953;28;20256;-44
2021/08/06 10:09:38;;;;;;;2.65;2.45;;;22.50;99.90;;;;;;5030454;28;20199;-47
2021/08/06 10:12:06;;;;;;;2.42;2.33;;;22.50;99.90;;;;;;5042860;28;20226;-46
2021/08/06 10:14:34;;;;;;;2.53;2.33;;;22.50;99.90;;;;;;5045458;28;20187;-42
2021/08/06 10:17:01;;;;;;;2.33;2.13;;;22.70;99.90;;;;;;5044891;28;20228;-43
2021/08/06 10:19:29;;;;;;;2.50;2.30;;;22.80;99.90;;;;;;5044927;28;20241;-42
2021/08/06 10:21:59;;;;;;;2.22;2.03;;;22.80;99.90;;;;;;5042249;28;20272;-42
2021/08/06 10:24:26;;;;;;;2.30;2.20;;;22.80;99.90;;;;;;5043416;28;20175;-45
2021/08/06 10:26:53;;;;;;;2.10;1.90;;;22.90;99.90;;;;;;5027703;28;20540;-44
2021/08/06 10:29:21;;;;;;;2.17;2.08;;;22.90;99.90;;;;;;5041496;28;20909;-44
2021/08/06 10:32:10;;;;;;;2.70;2.50;;;23.00;99.90;;;;;;5044754;28;20593;-46
2021/08/06 10:35:09;;;;;;;2.03;1.92;;;23.00;99.90;;;;;;5044713;28;20209;-45
2021/08/06 10:37:53;;;;;;;2.35;2.25;;;23.00;99.90;;;;;;5045485;28;20243;-44
2021/08/06 10:41:01;;;;;;;2.10;2.00;;;23.00;99.90;;;;;;5025984;28;23645;-42
2021/08/06 10:44:03;;;;;;;2.10;2.00;;;23.20;99.90;;;;;;5043401;28;20883;-49
2021/08/06 10:46:50;;;;;;;2.60;2.40;;;23.20;99.90;;;;;;5046550;28;20183;-48
2021/08/06 10:49:16;;;;;;;2.30;2.10;;;23.20;99.90;;;;;;5043744;28;20191;-43
2021/08/06 10:51:43;;;;;;;2.35;2.15;;;23.30;99.90;;;;;;5046674;28;20203;-41
2021/08/06 10:54:36;;;;;;;2.13;2.03;;;23.30;99.90;;;;;;5041898;28;20188;-46
2021/08/06 10:57:21;;;;;;;2.80;2.60;;;23.30;99.90;;;;;;5024929;28;20293;-50
2021/08/06 10:59:48;;;;;;;2.40;2.20;;;23.30;99.90;;;;;;5044045;28;20564;-45
2021/08/06 11:02:41;;;;;;;2.53;2.33;;;23.30;99.90;;;;;;5039391;28;20179;-44
2021/08/06 11:05:33;;;;;;;2.35;2.25;;;23.30;99.90;;;;;;5040141;28;20191;-44
2021/08/06 11:08:03;;;;;;;2.30;2.20;;;23.50;99.90;;;;;;5041804;28;20211;-41
2021/08/06 11:10:49;;;;;;;3.08;2.10;;;23.60;99.90;;;;;;5043604;28;20225;-42
2021/08/06 11:14:04;;;;;;;2.15;2.05;;;23.70;99.90;;;;;;5027077;28;20207;-41
2021/08/06 11:16:30;;;;;;;2.35;2.25;;;23.80;99.90;;;;;;5023188;28;20230;-40
2021/08/06 11:18:57;;;;;;;2.58;2.30;;;23.80;99.90;;;;;;5021729;28;20226;-42
2021/08/06 11:21:24;;;;;;;2.58;2.47;;;24.00;99.90;;;;;;5036978;28;20206;-45
2021/08/06 11:23:58;;;;;;;3.05;2.75;;;24.20;99.90;;;;;;5043423;28;20767;-43
2021/08/06 11:26:26;;;;;;;2.30;2.10;;;24.40;99.90;;;;;;5027665;28;20206;-45
2021/08/06 11:28:56;;;;;;;2.33;2.22;;;24.50;99.90;;;;;;5045217;28;20572;-44
2021/08/06 11:31:22;;;;;;;2.72;2.10;;;24.60;99.90;;;;;;5043695;28;20205;-42
2021/08/06 11:34:01;;;;;;;2.97;2.78;;;24.70;99.90;;;;;;5043361;28;20191;-44
2021/08/06 11:36:28;;;;;;;2.60;2.40;;;24.80;99.90;;;;;;5042747;28;20272;-48
2021/08/06 11:39:01;;;;;;;2.70;2.40;;;24.70;99.90;;;;;;5044007;28;20211;-45
2021/08/06 11:41:30;;;;;;;2.65;2.50;;;24.60;99.90;;;;;;5024101;28;20290;-41
2021/08/06 11:43:58;;;;;;;2.78;2.67;;;24.60;99.90;;;;;;5040964;28;20607;-47
2021/08/06 11:46:24;;;;;;;2.60;2.50;;;24.60;99.90;;;;;;5044033;28;20475;-46
2021/08/06 11:48:53;;;;;;;2.70;2.50;;;24.60;99.90;;;;;;5044865;28;20241;-41
2021/08/06 11:51:20;;;;;;;2.95;2.60;;;24.70;99.80;;;;;;5042932;28;20195;-42
2021/08/06 11:53:47;;;;;;;3.20;3.00;;;24.70;99.90;;;;;;5043373;28;20664;-41
2021/08/06 11:56:16;;;;;;;3.25;3.00;;;24.70;99.40;;;;;;5039272;28;20207;-46
2021/08/06 11:58:44;;;;;;;3.17;2.97;;;24.60;99.20;;;;;;5027625;28;20223;-43
2021/08/06 12:01:20;;;;;;;3.13;2.92;;;24.50;98.80;;;;;;5041498;28;20275;-43
2021/08/06 12:03:48;;;;;;;3.08;2.88;;;24.50;98.20;;;;;;5046145;28;20290;-44
2021/08/06 12:06:16;;;;;;;3.83;3.53;;;24.40;98.30;;;;;;5042169;28;20176;-46
2021/08/06 12:08:44;;;;;;;3.28;3.08;;;24.30;98.50;;;;;;5045357;28;20261;-40
2021/08/06 12:11:13;;;;;;;3.30;3.10;;;24.10;98.60;;;;;;5039089;28;20820;-42
2021/08/06 12:13:41;;;;;;;3.22;3.03;;;24.30;99.10;;;;;;5027310;28;20211;-41
2021/08/06 12:16:11;;;;;;;3.50;3.30;;;24.30;98.40;;;;;;5040247;28;20234;-40
2021/08/06 12:18:39;;;;;;;4.20;3.90;;;24.30;98.60;;;;;;5045155;28;20215;-44
2021/08/06 12:21:09;;;;;;;3.45;3.25;;;24.40;99.70;;;;;;5041918;28;20214;-41
2021/08/06 12:23:42;;;;;;;3.22;3.03;;;24.50;99.30;;;;;;5046389;28;20410;-49
2021/08/06 12:26:18;;;;;;;3.58;3.38;;;24.50;98.90;;;;;;5042738;28;20284;-42
2021/08/06 12:28:47;;;;;;;3.90;3.70;;;24.60;99.10;;;;;;5030584;28;20567;-44
2021/08/06 12:31:24;;;;;;;3.83;3.53;;;24.70;98.60;;;;;;5040781;28;20217;-42
2021/08/06 12:34:07;;;;;;;2.97;2.78;;;24.80;99.50;;;;;;5042499;28;20252;-43
2021/08/06 12:36:35;;;;;;;3.58;3.35;;;25.10;98.90;;;;;;5042749;28;20219;-42
2021/08/06 12:39:10;;;;;;;3.65;3.35;;;25.10;98.50;;;;;;5039968;28;20677;-42
2021/08/06 12:41:38;;;;;;;3.58;3.38;;;25.20;98.10;;;;;;5042907;28;20223;-46
2021/08/06 12:44:24;;;;;;;3.63;3.42;;;25.10;98.50;;;;;;5026736;28;20192;-43
2021/08/06 12:47:01;;;;;;;3.22;3.03;;;25.00;98.20;;;;;;5040360;28;20539;-42
2021/08/06 12:49:29;;;;;;;3.80;3.20;;;24.80;98.20;;;;;;5041430;28;20881;-44
2021/08/06 12:52:02;;;;;;;3.08;2.95;;;24.60;98.00;;;;;;5040917;28;20206;-43
2021/08/06 12:54:51;;;;;;;3.60;3.35;;;24.40;98.50;;;;;;5043342;28;20187;-42
2021/08/06 12:57:17;;;;;;;3.95;3.65;;;24.30;98.60;;;;;;5034690;28;20240;-43
2021/08/06 12:59:45;;;;;;;3.28;2.97;;;24.10;99.10;;;;;;5045182;28;20642;-43